createdAt,value
2018-03-23T00:01:38.537Z,2.30
2018-03-23T00:04:05.984Z,2.20
2018-03-23T00:06:33.457Z,2.20
2018-03-23T00:09:00.907Z,2.20
2018-03-23T00:11:28.378Z,2.30
2018-03-23T00:13:55.983Z,2.30
2018-03-23T00:16:23.440Z,2.20
2018-03-23T00:18:50.964Z,2.30
2018-03-23T00:21:19.997Z,2.30
2018-03-23T00:23:52.093Z,2.20
2018-03-23T00:26:19.817Z,2.20
2018-03-23T00:28:47.282Z,2.20
2018-03-23T00:31:14.737Z,2.20
2018-03-23T00:33:42.221Z,2.20
2018-03-23T00:36:09.671Z,2.30
2018-03-23T00:38:37.134Z,2.20
2018-03-23T00:41:04.781Z,2.20
2018-03-23T00:43:33.159Z,2.20
2018-03-23T00:46:03.478Z,2.10
2018-03-23T00:48:30.964Z,2.20
2018-03-23T00:50:58.729Z,2.20
2018-03-23T00:53:26.373Z,2.10
2018-03-23T00:55:53.944Z,2.20
2018-03-23T00:58:21.385Z,2.20
2018-03-23T01:00:49.060Z,2.30
2018-03-23T01:03:17.230Z,2.20
2018-03-23T01:05:44.717Z,2.20
2018-03-23T01:08:12.157Z,2.30
2018-03-23T01:10:39.638Z,2.20
2018-03-23T01:13:07.116Z,2.20
2018-03-23T01:15:34.560Z,2.20
2018-03-23T01:18:02.031Z,2.20
2018-03-23T01:20:29.502Z,2.20
2018-03-23T01:22:57.209Z,2.20
2018-03-23T01:25:28.657Z,2.30
2018-03-23T01:27:56.094Z,2.30
2018-03-23T01:30:23.875Z,2.20
2018-03-23T01:32:51.325Z,2.20
2018-03-23T01:35:18.809Z,2.40
2018-03-23T01:37:46.282Z,2.40
2018-03-23T01:40:17.701Z,2.20
2018-03-23T01:42:45.372Z,2.10
2018-03-23T01:45:12.841Z,2.00
2018-03-23T01:47:40.348Z,1.90
2018-03-23T01:50:07.842Z,1.90
2018-03-23T01:52:35.285Z,2.00
2018-03-23T01:55:06.980Z,1.90
2018-03-23T01:57:35.421Z,1.90
2018-03-23T02:00:03.067Z,1.80
2018-03-23T02:02:30.522Z,2.00
2018-03-23T02:04:57.971Z,2.00
2018-03-23T02:07:25.461Z,2.00
2018-03-23T02:09:52.934Z,1.90
2018-03-23T02:12:20.368Z,2.00
2018-03-23T02:14:48.773Z,1.90
2018-03-23T02:17:16.986Z,1.90
2018-03-23T02:19:44.698Z,1.90
2018-03-23T02:22:13.067Z,1.90
2018-03-23T02:24:40.540Z,1.90
2018-03-23T02:27:08.312Z,1.90
2018-03-23T02:29:36.530Z,1.90
2018-03-23T02:32:03.997Z,1.90
2018-03-23T02:34:33.726Z,1.90
2018-03-23T02:37:01.194Z,1.90
2018-03-23T02:39:28.681Z,2.00
2018-03-23T02:42:01.964Z,2.20
2018-03-23T02:44:29.398Z,2.10
2018-03-23T02:46:58.359Z,2.10
2018-03-23T02:49:25.828Z,2.10
2018-03-23T02:51:53.617Z,2.10
2018-03-23T02:54:21.057Z,2.20
2018-03-23T02:56:52.522Z,2.10
2018-03-23T02:59:19.988Z,2.00
2018-03-23T03:01:47.437Z,2.00
2018-03-23T03:04:14.914Z,2.00
2018-03-23T03:06:42.376Z,2.00
2018-03-23T03:09:10.301Z,1.90
2018-03-23T03:11:37.801Z,1.90
2018-03-23T03:14:07.047Z,1.90
2018-03-23T03:16:34.497Z,1.90
2018-03-23T03:19:01.960Z,2.00
2018-03-23T03:21:29.409Z,1.90
2018-03-23T03:23:57.004Z,1.90
2018-03-23T03:26:28.317Z,2.00
2018-03-23T03:28:59.881Z,2.00
2018-03-23T03:31:28.213Z,2.00
2018-03-23T03:33:57.273Z,2.10
2018-03-23T03:36:24.741Z,2.10
2018-03-23T03:38:52.202Z,2.20
2018-03-23T03:41:22.101Z,2.20
2018-03-23T03:43:49.585Z,2.20
2018-03-23T03:46:17.074Z,2.20
2018-03-23T03:48:44.683Z,2.30
2018-03-23T03:51:12.165Z,2.30
2018-03-23T03:53:40.337Z,2.40
2018-03-23T03:56:07.811Z,2.50
2018-03-23T03:58:35.265Z,2.40
2018-03-23T04:01:02.741Z,2.50
2018-03-23T04:03:30.215Z,2.50
2018-03-23T04:05:57.708Z,2.50
2018-03-23T04:08:25.183Z,2.40
2018-03-23T04:10:54.346Z,2.30
2018-03-23T04:13:21.801Z,2.30
2018-03-23T04:15:49.593Z,2.40
2018-03-23T04:18:17.053Z,2.40
2018-03-23T04:20:44.527Z,2.40
2018-03-23T04:23:12.019Z,2.30
2018-03-23T04:25:39.949Z,2.30
2018-03-23T04:28:11.782Z,2.30
2018-03-23T04:30:39.269Z,2.40
2018-03-23T04:33:06.709Z,2.40
2018-03-23T04:35:34.441Z,2.30
2018-03-23T04:38:03.598Z,2.40
2018-03-23T04:40:31.043Z,2.40
2018-03-23T04:43:03.377Z,2.30
2018-03-23T04:45:31.516Z,2.30
2018-03-23T04:47:59.125Z,2.30
2018-03-23T04:50:26.564Z,2.30
2018-03-23T04:52:54.027Z,2.20
2018-03-23T04:55:21.505Z,2.30
2018-03-23T04:57:48.949Z,2.40
2018-03-23T05:00:18.850Z,2.50
2018-03-23T05:02:47.255Z,2.50
2018-03-23T05:05:14.724Z,2.50
2018-03-23T05:07:42.931Z,2.70
2018-03-23T05:10:10.397Z,2.70
2018-03-23T05:12:37.898Z,2.70
2018-03-23T05:15:05.369Z,2.70
2018-03-23T05:17:32.817Z,2.70
2018-03-23T05:20:01.953Z,2.80
2018-03-23T05:22:29.420Z,2.80
2018-03-23T05:24:56.866Z,2.90
2018-03-23T05:27:24.349Z,2.80
2018-03-23T05:29:51.810Z,2.80
2018-03-23T05:32:19.264Z,2.80
2018-03-23T05:34:46.925Z,2.80
2018-03-23T05:37:14.847Z,2.70
2018-03-23T05:39:42.292Z,2.70
2018-03-23T05:42:10.539Z,2.70
2018-03-23T05:44:42.605Z,2.60
2018-03-23T05:47:10.049Z,2.60
2018-03-23T05:49:38.362Z,2.60
2018-03-23T05:52:05.838Z,2.70
2018-03-23T05:54:33.317Z,2.70
2018-03-23T05:57:00.811Z,2.80
2018-03-23T05:59:28.952Z,2.90
2018-03-23T06:01:56.478Z,2.90
2018-03-23T06:04:23.992Z,2.90
2018-03-23T06:06:51.488Z,3.00
2018-03-23T06:09:19.018Z,3.00
2018-03-23T06:11:46.453Z,3.00
2018-03-23T06:14:18.524Z,3.00
2018-03-23T06:16:45.977Z,3.10
2018-03-23T06:19:13.450Z,3.10
2018-03-23T06:21:41.093Z,3.20
2018-03-23T06:24:08.554Z,3.10
2018-03-23T06:26:36.029Z,3.20
2018-03-23T06:29:03.505Z,3.10
2018-03-23T06:31:30.946Z,3.00
2018-03-23T06:33:58.454Z,3.00
2018-03-23T06:36:26.616Z,3.00
2018-03-23T06:38:54.108Z,2.90
2018-03-23T06:41:21.794Z,3.00
2018-03-23T06:43:49.304Z,2.90
2018-03-23T06:46:16.766Z,2.90
2018-03-23T06:48:44.208Z,2.90
2018-03-23T06:51:11.662Z,2.90
2018-03-23T06:53:40.793Z,2.90
2018-03-23T06:56:08.269Z,2.90
2018-03-23T06:58:35.737Z,2.90
2018-03-23T07:01:03.216Z,2.90
2018-03-23T07:03:30.713Z,2.90
2018-03-23T07:05:58.164Z,2.90
2018-03-23T07:08:25.647Z,2.90
2018-03-23T07:10:54.199Z,3.10
2018-03-23T07:13:21.790Z,3.20
2018-03-23T07:15:49.334Z,3.30
2018-03-23T07:18:16.829Z,3.40
2018-03-23T07:20:44.474Z,3.50
2018-03-23T07:23:11.912Z,3.50
2018-03-23T07:25:39.365Z,3.50
2018-03-23T07:28:07.674Z,3.50
2018-03-23T07:30:42.090Z,3.50
2018-03-23T07:33:09.680Z,3.50
2018-03-23T07:35:37.133Z,3.50
2018-03-23T07:38:04.606Z,3.70
2018-03-23T07:40:32.079Z,3.70
2018-03-23T07:43:00.488Z,3.70
2018-03-23T07:45:28.065Z,3.70
2018-03-23T07:47:55.514Z,3.80
2018-03-23T07:50:22.976Z,3.90
2018-03-23T07:52:50.417Z,3.90
2018-03-23T07:55:18.090Z,4.10
2018-03-23T07:57:45.551Z,4.20
2018-03-23T08:00:13.021Z,4.40
2018-03-23T08:02:41.298Z,4.50
2018-03-23T08:05:08.776Z,5.00
2018-03-23T08:07:36.245Z,5.40
2018-03-23T08:10:03.726Z,5.40
2018-03-23T08:12:31.202Z,5.10
2018-03-23T08:14:58.658Z,5.00
2018-03-23T08:17:26.124Z,4.80
2018-03-23T08:19:53.596Z,4.70
2018-03-23T08:22:21.342Z,4.80
2018-03-23T08:24:49.293Z,5.00
2018-03-23T08:27:16.760Z,5.00
2018-03-23T08:29:44.229Z,5.00
2018-03-23T08:32:19.485Z,5.00
2018-03-23T08:34:46.956Z,4.90
2018-03-23T08:37:14.901Z,4.60
2018-03-23T08:39:42.617Z,4.60
2018-03-23T08:42:10.210Z,4.40
2018-03-23T08:44:37.736Z,4.30
2018-03-23T08:47:05.187Z,4.40
2018-03-23T08:49:32.761Z,4.40
2018-03-23T08:52:00.245Z,4.40
2018-03-23T08:54:28.329Z,4.30
2018-03-23T08:56:55.793Z,4.30
2018-03-23T08:59:24.018Z,4.30
2018-03-23T09:01:51.709Z,4.30
2018-03-23T09:04:23.472Z,4.20
2018-03-23T09:06:50.949Z,4.40
2018-03-23T09:09:18.388Z,4.50
2018-03-23T09:11:45.857Z,4.50
2018-03-23T09:14:13.342Z,4.60
2018-03-23T09:16:40.822Z,4.50
2018-03-23T09:19:08.449Z,4.20
2018-03-23T09:21:35.884Z,4.00
2018-03-23T09:24:03.361Z,4.00
2018-03-23T09:26:30.801Z,3.90
2018-03-23T09:28:58.267Z,3.90
2018-03-23T09:31:26.374Z,3.90
2018-03-23T09:33:56.920Z,3.80
2018-03-23T09:36:24.389Z,3.90
2018-03-23T09:38:51.855Z,4.20
2018-03-23T09:41:19.325Z,4.30
2018-03-23T09:43:46.814Z,4.30
2018-03-23T09:46:14.273Z,4.40
2018-03-23T09:48:41.969Z,4.50
2018-03-23T09:51:10.337Z,4.30
2018-03-23T09:53:37.853Z,4.30
2018-03-23T09:56:05.280Z,4.30
2018-03-23T09:58:32.745Z,4.50
2018-03-23T10:01:00.510Z,4.70
2018-03-23T10:03:27.971Z,4.50
2018-03-23T10:05:56.186Z,4.40
2018-03-23T10:08:23.742Z,4.40
2018-03-23T10:10:51.215Z,4.30
2018-03-23T10:13:18.706Z,4.30
2018-03-23T10:15:46.136Z,4.40
2018-03-23T10:18:16.681Z,4.50
2018-03-23T10:20:44.173Z,4.60
2018-03-23T10:23:11.598Z,4.70
2018-03-23T10:25:39.054Z,4.70
2018-03-23T10:28:06.829Z,4.70
2018-03-23T10:30:34.285Z,4.90
2018-03-23T10:33:02.950Z,5.10
2018-03-23T10:35:30.521Z,5.20
2018-03-23T10:37:57.920Z,5.10
2018-03-23T10:40:25.442Z,5.00
2018-03-23T10:42:52.984Z,5.10
2018-03-23T10:45:21.225Z,5.00
2018-03-23T10:47:48.673Z,4.90
2018-03-23T10:50:16.414Z,5.00
2018-03-23T10:52:44.044Z,5.00
2018-03-23T10:55:11.545Z,5.00
2018-03-23T10:57:39.001Z,5.00
2018-03-23T11:00:06.810Z,5.00
2018-03-23T11:02:38.481Z,4.90
2018-03-23T11:05:06.306Z,4.90
2018-03-23T11:07:34.575Z,5.10
2018-03-23T11:10:02.804Z,5.30
2018-03-23T11:12:30.253Z,5.30
2018-03-23T11:14:57.725Z,5.20
2018-03-23T11:17:25.238Z,5.10
2018-03-23T11:19:56.945Z,5.00
2018-03-23T11:22:25.919Z,5.10
2018-03-23T11:24:53.390Z,5.00
2018-03-23T11:27:20.836Z,5.30
2018-03-23T11:29:48.313Z,5.40
2018-03-23T11:32:15.904Z,5.20
2018-03-23T11:34:47.787Z,5.10
2018-03-23T11:37:15.229Z,5.20
2018-03-23T11:39:42.704Z,5.30
2018-03-23T11:42:10.149Z,5.50
2018-03-23T11:44:37.828Z,5.80
2018-03-23T11:47:05.261Z,5.90
2018-03-23T11:49:34.617Z,6.60
2018-03-23T11:52:02.088Z,6.50
2018-03-23T11:54:29.560Z,6.70
2018-03-23T11:56:58.700Z,6.70
2018-03-23T11:59:26.177Z,6.70
2018-03-23T12:01:53.638Z,6.60
2018-03-23T12:04:21.115Z,6.50
2018-03-23T12:06:48.769Z,6.50
2018-03-23T12:09:16.213Z,6.60
2018-03-23T12:11:43.682Z,6.80
2018-03-23T12:14:11.146Z,7.00
2018-03-23T12:16:38.622Z,6.90
2018-03-23T12:19:06.862Z,6.60
2018-03-23T12:21:34.352Z,6.60
2018-03-23T12:24:01.795Z,6.60
2018-03-23T12:26:29.238Z,6.50
2018-03-23T12:28:56.749Z,6.40
2018-03-23T12:31:24.262Z,6.50
2018-03-23T12:33:51.713Z,6.60
2018-03-23T12:36:19.182Z,6.60
2018-03-23T12:38:46.649Z,6.40
2018-03-23T12:41:16.590Z,6.30
2018-03-23T12:43:44.046Z,6.30
2018-03-23T12:46:11.667Z,6.30
2018-03-23T12:48:39.752Z,6.30
2018-03-23T12:51:12.058Z,6.50
2018-03-23T12:53:40.122Z,6.50
2018-03-23T12:56:07.580Z,6.20
2018-03-23T12:58:35.027Z,6.00
2018-03-23T13:01:03.276Z,6.00
2018-03-23T13:03:30.730Z,6.00
2018-03-23T13:06:00.657Z,6.00
2018-03-23T13:08:28.070Z,6.00
2018-03-23T13:10:55.517Z,6.00
2018-03-23T13:13:22.969Z,6.10
2018-03-23T13:15:50.489Z,6.00
2018-03-23T13:18:18.793Z,5.90
2018-03-23T13:20:46.261Z,5.90
2018-03-23T13:23:17.277Z,5.80
2018-03-23T13:25:45.722Z,5.90
2018-03-23T13:28:13.664Z,5.90
2018-03-23T13:30:41.349Z,6.00
2018-03-23T13:33:08.825Z,6.20
2018-03-23T13:35:36.534Z,6.30
2018-03-23T13:38:07.413Z,6.40
2018-03-23T13:40:35.108Z,6.50
2018-03-23T13:43:02.983Z,6.60
2018-03-23T13:45:30.572Z,6.50
2018-03-23T13:47:58.016Z,6.60
2018-03-23T13:50:25.519Z,6.60
2018-03-23T13:52:53.003Z,6.60
2018-03-23T13:55:20.462Z,6.60
2018-03-23T13:57:47.938Z,6.70
2018-03-23T14:00:21.168Z,6.80
2018-03-23T14:02:48.665Z,6.90
2018-03-23T14:05:17.728Z,7.30
2018-03-23T14:07:47.604Z,7.50
2018-03-23T14:10:15.055Z,7.50
2018-03-23T14:12:42.517Z,7.40
2018-03-23T14:15:09.961Z,7.40
2018-03-23T14:17:37.477Z,7.50
2018-03-23T14:20:04.894Z,7.50
2018-03-23T14:22:35.465Z,7.50
2018-03-23T14:25:04.408Z,7.30
2018-03-23T14:27:31.912Z,7.30
2018-03-23T14:29:59.665Z,7.60
2018-03-23T14:32:27.330Z,7.90
2018-03-23T14:34:55.736Z,8.10
2018-03-23T14:37:23.189Z,8.20
2018-03-23T14:39:50.664Z,8.10
2018-03-23T14:42:18.138Z,8.30
2018-03-23T14:44:45.645Z,8.60
2018-03-23T14:47:13.113Z,8.80
2018-03-23T14:49:40.576Z,9.00
2018-03-23T14:52:08.023Z,9.20
2018-03-23T14:54:35.488Z,9.50
2018-03-23T14:57:02.936Z,9.90
2018-03-23T14:59:34.341Z,10.10
2018-03-23T15:02:01.844Z,10.10
2018-03-23T15:04:29.293Z,9.60
2018-03-23T15:06:56.745Z,9.40
2018-03-23T15:09:25.726Z,8.70
2018-03-23T15:11:54.576Z,8.50
2018-03-23T15:14:22.056Z,8.40
2018-03-23T15:16:49.559Z,8.30
2018-03-23T15:19:18.716Z,8.00
2018-03-23T15:21:46.213Z,8.00
2018-03-23T15:24:17.857Z,8.00
2018-03-23T15:26:45.306Z,7.90
2018-03-23T15:29:13.169Z,7.70
2018-03-23T15:31:40.624Z,7.60
2018-03-23T15:34:08.094Z,7.50
2018-03-23T15:36:35.557Z,7.30
2018-03-23T15:39:09.054Z,7.20
2018-03-23T15:41:36.506Z,7.30
2018-03-23T15:44:04.028Z,7.20
2018-03-23T15:46:31.510Z,7.30
2018-03-23T15:48:59.094Z,7.40
2018-03-23T15:51:27.582Z,7.60
2018-03-23T15:53:55.021Z,8.00
2018-03-23T15:56:22.521Z,8.30
2018-03-23T15:58:50.127Z,8.60
2018-03-23T16:01:17.584Z,8.70
2018-03-23T16:03:45.166Z,8.70
2018-03-23T16:06:12.621Z,8.70
2018-03-23T16:08:41.036Z,8.80
2018-03-23T16:11:08.482Z,8.80
2018-03-23T16:13:36.061Z,8.70
2018-03-23T16:16:03.516Z,8.50
2018-03-23T16:18:31.201Z,8.30
2018-03-23T16:20:58.600Z,8.10
2018-03-23T16:23:26.201Z,7.90
2018-03-23T16:25:53.638Z,7.70
2018-03-23T16:28:21.133Z,7.40
2018-03-23T16:30:49.065Z,7.20
2018-03-23T16:33:16.524Z,7.00
2018-03-23T16:35:43.964Z,6.90
2018-03-23T16:38:12.221Z,6.70
2018-03-23T16:40:39.668Z,6.70
2018-03-23T16:43:07.149Z,6.60
2018-03-23T16:45:35.375Z,6.40
2018-03-23T16:48:02.949Z,6.30
2018-03-23T16:50:30.480Z,6.40
2018-03-23T16:52:57.953Z,6.30
2018-03-23T16:55:28.553Z,6.20
2018-03-23T16:57:56.046Z,6.10
2018-03-23T17:00:23.505Z,6.10
2018-03-23T17:02:50.971Z,6.10
2018-03-23T17:05:18.443Z,6.10
2018-03-23T17:07:45.913Z,6.10
2018-03-23T17:10:13.357Z,6.10
2018-03-23T17:12:43.131Z,6.10
2018-03-23T17:15:11.562Z,6.00
2018-03-23T17:17:39.013Z,6.00
2018-03-23T17:20:06.878Z,6.00
2018-03-23T17:22:34.446Z,6.10
2018-03-23T17:25:01.910Z,6.00
2018-03-23T17:27:29.373Z,6.00
2018-03-23T17:29:56.903Z,6.00
2018-03-23T17:32:24.655Z,6.00
2018-03-23T17:34:52.285Z,5.90
2018-03-23T17:37:20.125Z,5.90
2018-03-23T17:39:47.595Z,5.90
2018-03-23T17:42:15.334Z,5.90
2018-03-23T17:44:42.801Z,5.80
2018-03-23T17:47:11.041Z,5.90
2018-03-23T17:49:39.791Z,5.90
2018-03-23T17:52:07.283Z,5.90
2018-03-23T17:54:34.766Z,5.80
2018-03-23T17:57:02.851Z,5.70
2018-03-23T17:59:30.297Z,5.70
2018-03-23T18:01:59.333Z,5.60
2018-03-23T18:04:26.822Z,5.70
2018-03-23T18:06:54.448Z,5.70
2018-03-23T18:09:22.974Z,5.70
2018-03-23T18:11:50.626Z,5.60
2018-03-23T18:14:18.073Z,5.50
2018-03-23T18:16:45.548Z,5.60
2018-03-23T18:19:13.405Z,5.50
2018-03-23T18:21:41.038Z,5.50
2018-03-23T18:24:08.501Z,5.50
2018-03-23T18:26:40.377Z,5.40
2018-03-23T18:29:07.825Z,5.30
2018-03-23T18:31:35.314Z,5.20
2018-03-23T18:34:02.782Z,5.30
2018-03-23T18:36:30.218Z,5.30
2018-03-23T18:38:57.716Z,5.10
2018-03-23T18:41:25.176Z,5.00
2018-03-23T18:43:52.649Z,4.90
2018-03-23T18:46:21.458Z,4.90
2018-03-23T18:48:48.932Z,4.90
2018-03-23T18:51:16.389Z,4.90
2018-03-23T18:53:43.865Z,4.90
2018-03-23T18:56:11.332Z,5.00
2018-03-23T18:58:40.344Z,5.00
2018-03-23T19:01:07.858Z,5.00
2018-03-23T19:03:35.325Z,4.90
2018-03-23T19:06:02.936Z,4.90
2018-03-23T19:08:30.432Z,5.00
2018-03-23T19:10:58.829Z,5.00
2018-03-23T19:13:26.513Z,5.00
2018-03-23T19:15:54.837Z,4.90
2018-03-23T19:18:22.370Z,4.90
2018-03-23T19:20:49.964Z,4.90
2018-03-23T19:23:18.136Z,5.00
2018-03-23T19:25:45.585Z,4.90
2018-03-23T19:28:17.565Z,4.90
2018-03-23T19:30:45.009Z,4.80
2018-03-23T19:33:14.000Z,4.70
2018-03-23T19:35:41.673Z,4.70
2018-03-23T19:38:09.926Z,4.80
2018-03-23T19:40:37.793Z,4.70
2018-03-23T19:43:05.196Z,4.70
2018-03-23T19:45:32.663Z,4.80
2018-03-23T19:48:00.355Z,4.70
2018-03-23T19:50:27.913Z,4.80
2018-03-23T19:52:55.373Z,4.90
2018-03-23T19:55:22.903Z,4.90
2018-03-23T19:57:50.296Z,4.90
2018-03-23T20:00:17.742Z,4.80
2018-03-23T20:02:46.257Z,4.80
2018-03-23T20:05:13.617Z,4.70
2018-03-23T20:07:41.081Z,4.70
2018-03-23T20:10:08.530Z,4.70
2018-03-23T20:12:36.020Z,4.70
2018-03-23T20:15:03.456Z,4.70
2018-03-23T20:17:36.544Z,4.70
2018-03-23T20:20:09.554Z,4.70
2018-03-23T20:22:37.016Z,4.70
2018-03-23T20:25:04.470Z,4.70
2018-03-23T20:27:37.529Z,4.70
2018-03-23T20:30:05.178Z,4.80
2018-03-23T20:32:32.805Z,4.90
2018-03-23T20:35:01.955Z,4.80
2018-03-23T20:37:29.520Z,4.80
2018-03-23T20:39:57.112Z,4.80
2018-03-23T20:42:24.583Z,4.70
2018-03-23T20:44:52.046Z,4.70
2018-03-23T20:47:19.528Z,4.70
2018-03-23T20:49:47.065Z,4.60
2018-03-23T20:52:15.383Z,4.60
2018-03-23T20:54:42.857Z,4.50
2018-03-23T20:57:10.471Z,4.50
2018-03-23T20:59:37.910Z,4.60
2018-03-23T21:02:05.373Z,4.80
2018-03-23T21:04:33.811Z,4.80
2018-03-23T21:07:02.056Z,4.80
2018-03-23T21:09:29.508Z,4.80
2018-03-23T21:11:57.048Z,4.70
2018-03-23T21:14:24.513Z,4.50
2018-03-23T21:16:51.981Z,4.40
2018-03-23T21:19:19.450Z,4.30
2018-03-23T21:21:46.909Z,4.20
2018-03-23T21:24:14.387Z,4.10
2018-03-23T21:26:42.758Z,4.10
2018-03-23T21:29:10.228Z,4.10
2018-03-23T21:31:37.709Z,4.20
2018-03-23T21:34:05.153Z,4.30
2018-03-23T21:36:32.625Z,4.40
2018-03-23T21:39:00.085Z,4.40
2018-03-23T21:41:27.564Z,4.40
2018-03-23T21:43:55.021Z,4.40
2018-03-23T21:46:22.493Z,4.40
2018-03-23T21:48:52.381Z,4.20
2018-03-23T21:51:19.833Z,4.20
2018-03-23T21:53:47.317Z,4.30
2018-03-23T21:56:15.797Z,4.20
2018-03-23T21:58:43.270Z,4.20
2018-03-23T22:01:10.741Z,4.20
2018-03-23T22:03:38.989Z,4.30
2018-03-23T22:06:06.493Z,4.30
2018-03-23T22:08:33.941Z,4.40
2018-03-23T22:11:01.440Z,4.50
2018-03-23T22:13:29.516Z,4.50
2018-03-23T22:15:56.921Z,4.40
2018-03-23T22:18:24.412Z,4.30
2018-03-23T22:20:52.009Z,4.20
2018-03-23T22:23:19.470Z,4.20
2018-03-23T22:25:46.938Z,4.20
2018-03-23T22:28:14.390Z,4.10
2018-03-23T22:30:46.772Z,4.10
2018-03-23T22:33:14.296Z,4.10
2018-03-23T22:35:41.740Z,4.20
2018-03-23T22:38:09.214Z,4.30
2018-03-23T22:40:36.991Z,4.30
2018-03-23T22:43:05.973Z,4.30
2018-03-23T22:45:47.603Z,4.30
2018-03-23T22:48:15.148Z,4.30
2018-03-23T22:50:42.789Z,4.30
2018-03-23T22:53:10.412Z,4.30
2018-03-23T22:55:37.897Z,4.20
2018-03-23T22:58:06.205Z,4.20
2018-03-23T23:00:33.893Z,4.20
2018-03-23T23:03:01.501Z,4.20
2018-03-23T23:05:28.961Z,4.10
2018-03-23T23:07:56.441Z,4.10
2018-03-23T23:10:25.501Z,4.00
2018-03-23T23:12:53.697Z,4.00
2018-03-23T23:15:21.217Z,4.10
2018-03-23T23:17:48.751Z,4.00
2018-03-23T23:20:16.238Z,4.00
2018-03-23T23:22:44.049Z,4.00
2018-03-23T23:25:12.448Z,4.00
2018-03-23T23:27:40.164Z,4.00
2018-03-23T23:30:07.687Z,4.00
2018-03-23T23:32:35.166Z,4.00
2018-03-23T23:35:02.882Z,4.00
2018-03-23T23:37:30.438Z,3.90
2018-03-23T23:39:57.971Z,3.90
2018-03-23T23:42:26.369Z,4.00
2018-03-23T23:44:53.818Z,3.90
2018-03-23T23:47:21.253Z,4.00
2018-03-23T23:49:48.782Z,4.10
2018-03-23T23:52:16.328Z,4.20
2018-03-23T23:54:44.052Z,4.20
2018-03-23T23:57:11.649Z,4.30
2018-03-23T23:59:40.843Z,4.40
